sensor_id;sensor_type;location;lat;lon;timestamp;temperature;humidity
26821;DHT22;37186;51.394;5.454;2023-12-20T00:00:53;9.70;90.80
26821;DHT22;37186;51.394;5.454;2023-12-20T00:03:53;9.60;90.90
26821;DHT22;37186;51.394;5.454;2023-12-20T00:06:54;9.60;90.80
26821;DHT22;37186;51.394;5.454;2023-12-20T00:09:54;9.50;90.70
26821;DHT22;37186;51.394;5.454;2023-12-20T00:12:55;9.50;90.70
26821;DHT22;37186;51.394;5.454;2023-12-20T00:15:55;9.40;90.70
26821;DHT22;37186;51.394;5.454;2023-12-20T00:18:56;9.40;90.80
26821;DHT22;37186;51.394;5.454;2023-12-20T00:21:56;9.40;90.80
26821;DHT22;37186;51.394;5.454;2023-12-20T00:24:57;9.40;90.70
26821;DHT22;37186;51.394;5.454;2023-12-20T00:27:57;9.30;90.80
26821;DHT22;37186;51.394;5.454;2023-12-20T00:30:58;9.20;90.80
26821;DHT22;37186;51.394;5.454;2023-12-20T00:33:58;9.30;90.70
26821;DHT22;37186;51.394;5.454;2023-12-20T00:36:59;9.20;90.70
26821;DHT22;37186;51.394;5.454;2023-12-20T00:39:59;9.20;90.80
26821;DHT22;37186;51.394;5.454;2023-12-20T00:43:00;9.20;90.80
26821;DHT22;37186;51.394;5.454;2023-12-20T00:46:00;9.10;90.80
26821;DHT22;37186;51.394;5.454;2023-12-20T00:49:01;9.10;90.80
26821;DHT22;37186;51.394;5.454;2023-12-20T00:52:02;9.10;90.80
26821;DHT22;37186;51.394;5.454;2023-12-20T00:55:02;9.00;90.80
26821;DHT22;37186;51.394;5.454;2023-12-20T00:58:04;9.00;90.80
26821;DHT22;37186;51.394;5.454;2023-12-20T01:01:04;9.00;90.80
26821;DHT22;37186;51.394;5.454;2023-12-20T01:04:05;9.00;90.80
26821;DHT22;37186;51.394;5.454;2023-12-20T01:07:05;9.00;90.80
26821;DHT22;37186;51.394;5.454;2023-12-20T01:10:06;8.90;90.80
26821;DHT22;37186;51.394;5.454;2023-12-20T01:13:07;8.90;90.80
26821;DHT22;37186;51.394;5.454;2023-12-20T01:16:11;8.90;90.80
26821;DHT22;37186;51.394;5.454;2023-12-20T01:19:12;8.90;90.80
26821;DHT22;37186;51.394;5.454;2023-12-20T01:22:13;8.90;90.80
26821;DHT22;37186;51.394;5.454;2023-12-20T01:25:14;8.90;90.80
26821;DHT22;37186;51.394;5.454;2023-12-20T01:28:14;8.80;90.70
26821;DHT22;37186;51.394;5.454;2023-12-20T01:31:15;8.80;90.80
26821;DHT22;37186;51.394;5.454;2023-12-20T01:34:15;8.80;90.80
26821;DHT22;37186;51.394;5.454;2023-12-20T01:37:16;8.90;90.90
26821;DHT22;37186;51.394;5.454;2023-12-20T01:40:17;8.80;90.80
26821;DHT22;37186;51.394;5.454;2023-12-20T01:43:17;8.80;90.80
26821;DHT22;37186;51.394;5.454;2023-12-20T01:46:19;8.80;90.80
26821;DHT22;37186;51.394;5.454;2023-12-20T01:49:21;8.80;90.80
26821;DHT22;37186;51.394;5.454;2023-12-20T01:52:22;8.80;90.90
26821;DHT22;37186;51.394;5.454;2023-12-20T01:55:23;8.70;90.80
26821;DHT22;37186;51.394;5.454;2023-12-20T01:58:23;8.80;90.80
26821;DHT22;37186;51.394;5.454;2023-12-20T02:01:25;8.80;90.90
26821;DHT22;37186;51.394;5.454;2023-12-20T02:04:26;8.80;90.80
26821;DHT22;37186;51.394;5.454;2023-12-20T02:07:27;8.70;90.80
26821;DHT22;37186;51.394;5.454;2023-12-20T02:10:28;8.70;90.80
26821;DHT22;37186;51.394;5.454;2023-12-20T02:13:30;8.70;90.80
26821;DHT22;37186;51.394;5.454;2023-12-20T02:16:31;8.70;90.80
26821;DHT22;37186;51.394;5.454;2023-12-20T02:19:31;8.70;90.80
26821;DHT22;37186;51.394;5.454;2023-12-20T02:22:32;8.70;90.80
26821;DHT22;37186;51.394;5.454;2023-12-20T02:25:32;8.70;90.80
26821;DHT22;37186;51.394;5.454;2023-12-20T02:28:33;8.70;90.80
26821;DHT22;37186;51.394;5.454;2023-12-20T02:31:34;8.70;90.80
26821;DHT22;37186;51.394;5.454;2023-12-20T02:34:35;8.70;90.70
26821;DHT22;37186;51.394;5.454;2023-12-20T02:37:35;8.70;90.80
26821;DHT22;37186;51.394;5.454;2023-12-20T02:40:36;8.70;90.80
26821;DHT22;37186;51.394;5.454;2023-12-20T02:43:37;8.70;90.80
26821;DHT22;37186;51.394;5.454;2023-12-20T02:46:37;8.70;90.80
26821;DHT22;37186;51.394;5.454;2023-12-20T02:49:38;8.70;90.80
26821;DHT22;37186;51.394;5.454;2023-12-20T02:52:38;8.70;90.80
26821;DHT22;37186;51.394;5.454;2023-12-20T02:55:39;8.60;90.70
26821;DHT22;37186;51.394;5.454;2023-12-20T02:58:39;8.60;90.70
26821;DHT22;37186;51.394;5.454;2023-12-20T03:01:44;8.60;90.70
26821;DHT22;37186;51.394;5.454;2023-12-20T03:04:45;8.60;90.70
26821;DHT22;37186;51.394;5.454;2023-12-20T03:07:45;8.60;90.70
26821;DHT22;37186;51.394;5.454;2023-12-20T03:10:46;8.60;90.70
26821;DHT22;37186;51.394;5.454;2023-12-20T03:13:46;8.60;90.70
26821;DHT22;37186;51.394;5.454;2023-12-20T03:16:49;8.60;90.70
26821;DHT22;37186;51.394;5.454;2023-12-20T03:19:50;8.50;90.80
26821;DHT22;37186;51.394;5.454;2023-12-20T03:22:50;8.60;90.70
26821;DHT22;37186;51.394;5.454;2023-12-20T03:25:51;8.60;90.70
26821;DHT22;37186;51.394;5.454;2023-12-20T03:28:51;8.50;90.70
26821;DHT22;37186;51.394;5.454;2023-12-20T03:31:52;8.50;90.70
26821;DHT22;37186;51.394;5.454;2023-12-20T03:34:52;8.50;90.70
26821;DHT22;37186;51.394;5.454;2023-12-20T03:37:53;8.50;90.70
26821;DHT22;37186;51.394;5.454;2023-12-20T03:40:53;8.50;90.70
26821;DHT22;37186;51.394;5.454;2023-12-20T03:43:54;8.50;90.70
26821;DHT22;37186;51.394;5.454;2023-12-20T03:46:55;8.50;90.60
26821;DHT22;37186;51.394;5.454;2023-12-20T03:49:55;8.50;90.70
26821;DHT22;37186;51.394;5.454;2023-12-20T03:52:56;8.50;90.70
26821;DHT22;37186;51.394;5.454;2023-12-20T03:55:56;8.50;90.70
26821;DHT22;37186;51.394;5.454;2023-12-20T03:58:57;8.50;90.70
26821;DHT22;37186;51.394;5.454;2023-12-20T04:01:57;8.50;90.80
26821;DHT22;37186;51.394;5.454;2023-12-20T04:04:58;8.50;90.70
26821;DHT22;37186;51.394;5.454;2023-12-20T04:08:01;8.50;90.70
26821;DHT22;37186;51.394;5.454;2023-12-20T04:11:01;8.50;90.80
26821;DHT22;37186;51.394;5.454;2023-12-20T04:14:02;8.50;90.80
26821;DHT22;37186;51.394;5.454;2023-12-20T04:17:03;8.50;90.80
26821;DHT22;37186;51.394;5.454;2023-12-20T04:20:05;8.50;90.80
26821;DHT22;37186;51.394;5.454;2023-12-20T04:23:06;8.50;90.80
26821;DHT22;37186;51.394;5.454;2023-12-20T04:26:06;8.50;90.80
26821;DHT22;37186;51.394;5.454;2023-12-20T04:29:07;8.50;90.80
26821;DHT22;37186;51.394;5.454;2023-12-20T04:32:07;8.50;90.80
26821;DHT22;37186;51.394;5.454;2023-12-20T04:35:08;8.50;90.90
26821;DHT22;37186;51.394;5.454;2023-12-20T04:38:09;8.60;90.80
26821;DHT22;37186;51.394;5.454;2023-12-20T04:41:09;8.50;90.80
26821;DHT22;37186;51.394;5.454;2023-12-20T04:44:10;8.50;90.80
26821;DHT22;37186;51.394;5.454;2023-12-20T04:47:10;8.50;90.80
26821;DHT22;37186;51.394;5.454;2023-12-20T04:50:11;8.50;90.90
26821;DHT22;37186;51.394;5.454;2023-12-20T04:53:13;8.60;90.90
26821;DHT22;37186;51.394;5.454;2023-12-20T04:56:14;8.60;90.80
26821;DHT22;37186;51.394;5.454;2023-12-20T04:59:14;8.60;90.90
26821;DHT22;37186;51.394;5.454;2023-12-20T05:02:15;8.60;90.80
26821;DHT22;37186;51.394;5.454;2023-12-20T05:05:16;8.60;90.90
26821;DHT22;37186;51.394;5.454;2023-12-20T05:08:18;8.60;90.80
26821;DHT22;37186;51.394;5.454;2023-12-20T05:11:18;8.60;90.90
26821;DHT22;37186;51.394;5.454;2023-12-20T05:14:19;8.60;90.80
26821;DHT22;37186;51.394;5.454;2023-12-20T05:17:19;8.60;90.80
26821;DHT22;37186;51.394;5.454;2023-12-20T05:20:20;8.60;90.80
26821;DHT22;37186;51.394;5.454;2023-12-20T05:23:21;8.70;90.80
26821;DHT22;37186;51.394;5.454;2023-12-20T05:26:21;8.60;90.80
26821;DHT22;37186;51.394;5.454;2023-12-20T05:29:22;8.60;90.80
26821;DHT22;37186;51.394;5.454;2023-12-20T05:32:23;8.60;90.90
26821;DHT22;37186;51.394;5.454;2023-12-20T05:35:24;8.60;90.80
26821;DHT22;37186;51.394;5.454;2023-12-20T05:38:24;8.70;90.90
26821;DHT22;37186;51.394;5.454;2023-12-20T05:41:25;8.70;90.90
26821;DHT22;37186;51.394;5.454;2023-12-20T05:44:25;8.70;90.90
26821;DHT22;37186;51.394;5.454;2023-12-20T05:47:26;8.70;90.80
26821;DHT22;37186;51.394;5.454;2023-12-20T05:50:27;8.70;90.80
26821;DHT22;37186;51.394;5.454;2023-12-20T05:53:27;8.70;90.80
26821;DHT22;37186;51.394;5.454;2023-12-20T05:56:28;8.70;90.80
26821;DHT22;37186;51.394;5.454;2023-12-20T05:59:28;8.70;90.80
26821;DHT22;37186;51.394;5.454;2023-12-20T06:02:29;8.70;90.80
26821;DHT22;37186;51.394;5.454;2023-12-20T06:05:29;8.70;90.80
26821;DHT22;37186;51.394;5.454;2023-12-20T06:08:30;8.70;90.80
26821;DHT22;37186;51.394;5.454;2023-12-20T06:11:30;8.70;90.80
26821;DHT22;37186;51.394;5.454;2023-12-20T06:14:31;8.70;90.80
26821;DHT22;37186;51.394;5.454;2023-12-20T06:17:32;8.70;90.80
26821;DHT22;37186;51.394;5.454;2023-12-20T06:20:33;8.70;90.80
26821;DHT22;37186;51.394;5.454;2023-12-20T06:23:33;8.70;90.70
26821;DHT22;37186;51.394;5.454;2023-12-20T06:26:34;8.70;90.70
26821;DHT22;37186;51.394;5.454;2023-12-20T06:29:34;8.70;90.70
26821;DHT22;37186;51.394;5.454;2023-12-20T06:32:35;8.60;90.60
26821;DHT22;37186;51.394;5.454;2023-12-20T06:35:35;8.60;90.60
26821;DHT22;37186;51.394;5.454;2023-12-20T06:38:36;8.60;90.60
26821;DHT22;37186;51.394;5.454;2023-12-20T06:41:36;8.60;90.50
26821;DHT22;37186;51.394;5.454;2023-12-20T06:44:37;8.60;90.60
26821;DHT22;37186;51.394;5.454;2023-12-20T06:47:39;8.60;90.60
26821;DHT22;37186;51.394;5.454;2023-12-20T06:50:39;8.50;90.50
26821;DHT22;37186;51.394;5.454;2023-12-20T06:53:40;8.50;90.60
26821;DHT22;37186;51.394;5.454;2023-12-20T06:56:40;8.50;90.50
26821;DHT22;37186;51.394;5.454;2023-12-20T06:59:41;8.50;90.60
26821;DHT22;37186;51.394;5.454;2023-12-20T07:02:43;8.40;90.60
26821;DHT22;37186;51.394;5.454;2023-12-20T07:05:44;8.40;90.50
26821;DHT22;37186;51.394;5.454;2023-12-20T07:08:44;8.40;90.60
26821;DHT22;37186;51.394;5.454;2023-12-20T07:11:45;8.40;90.60
26821;DHT22;37186;51.394;5.454;2023-12-20T07:14:46;8.30;90.60
26821;DHT22;37186;51.394;5.454;2023-12-20T07:17:47;8.30;90.50
26821;DHT22;37186;51.394;5.454;2023-12-20T07:20:47;8.30;90.60
26821;DHT22;37186;51.394;5.454;2023-12-20T07:23:48;8.30;90.50
26821;DHT22;37186;51.394;5.454;2023-12-20T07:26:49;8.30;90.60
26821;DHT22;37186;51.394;5.454;2023-12-20T07:29:49;8.20;90.60
26821;DHT22;37186;51.394;5.454;2023-12-20T07:32:50;8.30;90.60
26821;DHT22;37186;51.394;5.454;2023-12-20T07:35:50;8.30;90.60
26821;DHT22;37186;51.394;5.454;2023-12-20T07:38:52;8.20;90.60
26821;DHT22;37186;51.394;5.454;2023-12-20T07:41:52;8.30;90.60
26821;DHT22;37186;51.394;5.454;2023-12-20T07:44:53;8.30;90.60
26821;DHT22;37186;51.394;5.454;2023-12-20T07:47:54;8.20;90.60
26821;DHT22;37186;51.394;5.454;2023-12-20T07:50:55;8.30;90.60
26821;DHT22;37186;51.394;5.454;2023-12-20T07:53:55;8.20;90.60
26821;DHT22;37186;51.394;5.454;2023-12-20T07:56:57;8.20;90.70
26821;DHT22;37186;51.394;5.454;2023-12-20T07:59:57;8.20;90.70
26821;DHT22;37186;51.394;5.454;2023-12-20T08:02:58;8.20;90.70
26821;DHT22;37186;51.394;5.454;2023-12-20T08:05:58;8.20;90.80
26821;DHT22;37186;51.394;5.454;2023-12-20T08:09:00;8.20;90.70
26821;DHT22;37186;51.394;5.454;2023-12-20T08:12:00;8.30;90.70
26821;DHT22;37186;51.394;5.454;2023-12-20T08:15:02;8.20;90.70
26821;DHT22;37186;51.394;5.454;2023-12-20T08:18:04;8.30;90.70
26821;DHT22;37186;51.394;5.454;2023-12-20T08:21:05;8.30;90.70
26821;DHT22;37186;51.394;5.454;2023-12-20T08:24:08;8.30;90.80
26821;DHT22;37186;51.394;5.454;2023-12-20T08:27:08;8.30;90.80
26821;DHT22;37186;51.394;5.454;2023-12-20T08:30:10;8.30;90.80
26821;DHT22;37186;51.394;5.454;2023-12-20T08:33:10;8.30;90.70
26821;DHT22;37186;51.394;5.454;2023-12-20T08:36:13;8.30;90.70
26821;DHT22;37186;51.394;5.454;2023-12-20T08:39:14;8.30;90.70
26821;DHT22;37186;51.394;5.454;2023-12-20T08:42:14;8.30;90.70
26821;DHT22;37186;51.394;5.454;2023-12-20T08:45:15;8.30;90.70
26821;DHT22;37186;51.394;5.454;2023-12-20T08:48:15;8.30;90.70
26821;DHT22;37186;51.394;5.454;2023-12-20T08:51:16;8.30;90.70
26821;DHT22;37186;51.394;5.454;2023-12-20T08:54:17;8.30;90.70
26821;DHT22;37186;51.394;5.454;2023-12-20T08:57:21;8.30;90.70
26821;DHT22;37186;51.394;5.454;2023-12-20T09:00:24;8.30;90.60
26821;DHT22;37186;51.394;5.454;2023-12-20T09:03:27;8.30;90.70
26821;DHT22;37186;51.394;5.454;2023-12-20T09:06:28;8.30;90.70
26821;DHT22;37186;51.394;5.454;2023-12-20T09:09:28;8.30;90.70
26821;DHT22;37186;51.394;5.454;2023-12-20T09:12:29;8.30;90.70
26821;DHT22;37186;51.394;5.454;2023-12-20T09:15:30;8.30;90.70
26821;DHT22;37186;51.394;5.454;2023-12-20T09:18:30;8.30;90.70
26821;DHT22;37186;51.394;5.454;2023-12-20T09:21:31;8.30;90.70
26821;DHT22;37186;51.394;5.454;2023-12-20T09:24:32;8.30;90.70
26821;DHT22;37186;51.394;5.454;2023-12-20T09:27:32;8.30;90.80
26821;DHT22;37186;51.394;5.454;2023-12-20T09:30:33;8.30;90.70
26821;DHT22;37186;51.394;5.454;2023-12-20T09:33:34;8.40;90.70
26821;DHT22;37186;51.394;5.454;2023-12-20T09:36:34;8.40;90.60
26821;DHT22;37186;51.394;5.454;2023-12-20T09:39:36;8.40;90.70
26821;DHT22;37186;51.394;5.454;2023-12-20T09:43:00;8.40;90.70
26821;DHT22;37186;51.394;5.454;2023-12-20T09:46:06;8.40;90.70
26821;DHT22;37186;51.394;5.454;2023-12-20T09:49:07;8.50;90.80
26821;DHT22;37186;51.394;5.454;2023-12-20T09:52:09;8.50;90.70
26821;DHT22;37186;51.394;5.454;2023-12-20T09:55:11;8.50;90.80
26821;DHT22;37186;51.394;5.454;2023-12-20T09:58:12;8.50;90.80
26821;DHT22;37186;51.394;5.454;2023-12-20T10:01:14;8.50;90.80
26821;DHT22;37186;51.394;5.454;2023-12-20T10:04:16;8.50;90.80
26821;DHT22;37186;51.394;5.454;2023-12-20T10:07:17;8.50;90.80
26821;DHT22;37186;51.394;5.454;2023-12-20T10:10:17;8.60;91.20
26821;DHT22;37186;51.394;5.454;2023-12-20T10:13:18;8.60;90.90
26821;DHT22;37186;51.394;5.454;2023-12-20T10:16:23;8.60;90.80
26821;DHT22;37186;51.394;5.454;2023-12-20T10:19:25;8.60;90.80
26821;DHT22;37186;51.394;5.454;2023-12-20T10:22:26;8.60;90.80
26821;DHT22;37186;51.394;5.454;2023-12-20T10:25:27;8.60;90.80
26821;DHT22;37186;51.394;5.454;2023-12-20T10:28:33;8.60;90.80
26821;DHT22;37186;51.394;5.454;2023-12-20T10:31:35;8.70;90.80
26821;DHT22;37186;51.394;5.454;2023-12-20T10:34:35;8.70;90.90
26821;DHT22;37186;51.394;5.454;2023-12-20T10:37:37;8.70;90.90
26821;DHT22;37186;51.394;5.454;2023-12-20T10:40:37;8.70;90.80
26821;DHT22;37186;51.394;5.454;2023-12-20T10:43:38;8.70;90.70
26821;DHT22;37186;51.394;5.454;2023-12-20T10:46:40;8.70;90.80
26821;DHT22;37186;51.394;5.454;2023-12-20T10:49:47;8.70;90.80
26821;DHT22;37186;51.394;5.454;2023-12-20T10:52:49;8.80;90.80
26821;DHT22;37186;51.394;5.454;2023-12-20T10:55:56;8.80;90.80
26821;DHT22;37186;51.394;5.454;2023-12-20T10:59:02;8.80;90.80
26821;DHT22;37186;51.394;5.454;2023-12-20T11:02:06;8.80;90.80
26821;DHT22;37186;51.394;5.454;2023-12-20T11:05:19;8.80;90.80
26821;DHT22;37186;51.394;5.454;2023-12-20T11:08:33;8.90;90.80
26821;DHT22;37186;51.394;5.454;2023-12-20T11:14:58;8.90;90.80
26821;DHT22;37186;51.394;5.454;2023-12-20T11:18:04;8.90;90.80
26821;DHT22;37186;51.394;5.454;2023-12-20T11:21:06;8.90;90.80
26821;DHT22;37186;51.394;5.454;2023-12-20T11:24:06;8.90;90.80
26821;DHT22;37186;51.394;5.454;2023-12-20T11:27:07;8.90;90.80
26821;DHT22;37186;51.394;5.454;2023-12-20T11:30:08;8.90;90.80
26821;DHT22;37186;51.394;5.454;2023-12-20T11:33:10;8.90;90.80
26821;DHT22;37186;51.394;5.454;2023-12-20T11:36:14;9.00;90.80
26821;DHT22;37186;51.394;5.454;2023-12-20T11:39:21;9.00;90.80
26821;DHT22;37186;51.394;5.454;2023-12-20T11:42:21;9.00;90.80
26821;DHT22;37186;51.394;5.454;2023-12-20T11:45:24;9.00;90.80
26821;DHT22;37186;51.394;5.454;2023-12-20T11:48:26;9.00;90.80
26821;DHT22;37186;51.394;5.454;2023-12-20T11:51:27;9.00;90.80
26821;DHT22;37186;51.394;5.454;2023-12-20T11:54:29;9.00;90.80
26821;DHT22;37186;51.394;5.454;2023-12-20T11:57:31;9.10;90.80
26821;DHT22;37186;51.394;5.454;2023-12-20T12:00:31;9.10;90.80
26821;DHT22;37186;51.394;5.454;2023-12-20T12:03:32;9.10;90.80
26821;DHT22;37186;51.394;5.454;2023-12-20T12:06:33;9.10;90.80
26821;DHT22;37186;51.394;5.454;2023-12-20T12:09:34;9.10;90.80
26821;DHT22;37186;51.394;5.454;2023-12-20T12:12:35;9.10;90.80
26821;DHT22;37186;51.394;5.454;2023-12-20T12:15:36;9.10;90.90
26821;DHT22;37186;51.394;5.454;2023-12-20T12:18:37;9.10;90.90
26821;DHT22;37186;51.394;5.454;2023-12-20T12:21:38;9.10;90.80
26821;DHT22;37186;51.394;5.454;2023-12-20T12:24:39;9.10;90.90
26821;DHT22;37186;51.394;5.454;2023-12-20T12:27:41;9.10;90.80
26821;DHT22;37186;51.394;5.454;2023-12-20T12:30:41;9.10;91.00
26821;DHT22;37186;51.394;5.454;2023-12-20T12:33:42;9.10;90.90
26821;DHT22;37186;51.394;5.454;2023-12-20T12:36:44;9.10;91.00
26821;DHT22;37186;51.394;5.454;2023-12-20T12:39:46;9.20;90.90
26821;DHT22;37186;51.394;5.454;2023-12-20T12:42:47;9.20;91.00
26821;DHT22;37186;51.394;5.454;2023-12-20T12:45:48;9.10;91.00
26821;DHT22;37186;51.394;5.454;2023-12-20T12:48:49;9.10;91.00
26821;DHT22;37186;51.394;5.454;2023-12-20T12:51:51;9.20;91.00
26821;DHT22;37186;51.394;5.454;2023-12-20T12:54:52;9.20;91.00
26821;DHT22;37186;51.394;5.454;2023-12-20T12:57:53;9.20;91.00
26821;DHT22;37186;51.394;5.454;2023-12-20T13:00:53;9.20;91.40
26821;DHT22;37186;51.394;5.454;2023-12-20T13:03:54;9.20;91.00
26821;DHT22;37186;51.394;5.454;2023-12-20T13:06:54;9.20;91.40
26821;DHT22;37186;51.394;5.454;2023-12-20T13:09:55;9.30;91.10
26821;DHT22;37186;51.394;5.454;2023-12-20T13:12:56;9.20;91.10
26821;DHT22;37186;51.394;5.454;2023-12-20T13:15:57;9.30;91.10
26821;DHT22;37186;51.394;5.454;2023-12-20T13:18:57;9.30;91.10
26821;DHT22;37186;51.394;5.454;2023-12-20T13:22:00;9.40;91.10
26821;DHT22;37186;51.394;5.454;2023-12-20T13:25:00;9.40;91.10
26821;DHT22;37186;51.394;5.454;2023-12-20T13:28:03;9.40;91.10
26821;DHT22;37186;51.394;5.454;2023-12-20T13:31:04;9.40;91.10
26821;DHT22;37186;51.394;5.454;2023-12-20T13:34:04;9.40;91.00
26821;DHT22;37186;51.394;5.454;2023-12-20T13:37:05;9.40;91.00
26821;DHT22;37186;51.394;5.454;2023-12-20T13:40:06;9.40;91.40
26821;DHT22;37186;51.394;5.454;2023-12-20T13:43:07;9.40;91.00
26821;DHT22;37186;51.394;5.454;2023-12-20T13:46:07;9.50;91.10
26821;DHT22;37186;51.394;5.454;2023-12-20T13:49:08;9.40;91.10
26821;DHT22;37186;51.394;5.454;2023-12-20T13:52:08;9.40;91.10
26821;DHT22;37186;51.394;5.454;2023-12-20T13:55:09;9.40;91.10
26821;DHT22;37186;51.394;5.454;2023-12-20T13:58:09;9.40;91.10
26821;DHT22;37186;51.394;5.454;2023-12-20T14:01:13;9.50;91.10
26821;DHT22;37186;51.394;5.454;2023-12-20T14:04:13;9.50;91.40
26821;DHT22;37186;51.394;5.454;2023-12-20T14:07:14;9.50;91.10
26821;DHT22;37186;51.394;5.454;2023-12-20T14:10:15;9.50;91.10
26821;DHT22;37186;51.394;5.454;2023-12-20T14:13:15;9.50;91.10
26821;DHT22;37186;51.394;5.454;2023-12-20T14:16:16;9.50;91.10
26821;DHT22;37186;51.394;5.454;2023-12-20T14:19:17;9.50;91.10
26821;DHT22;37186;51.394;5.454;2023-12-20T14:22:18;9.50;91.40
26821;DHT22;37186;51.394;5.454;2023-12-20T14:25:18;9.50;91.00
26821;DHT22;37186;51.394;5.454;2023-12-20T14:28:19;9.60;91.00
26821;DHT22;37186;51.394;5.454;2023-12-20T14:31:20;9.50;91.00
26821;DHT22;37186;51.394;5.454;2023-12-20T14:34:21;9.60;91.00
26821;DHT22;37186;51.394;5.454;2023-12-20T14:37:21;9.60;91.10
26821;DHT22;37186;51.394;5.454;2023-12-20T14:40:22;9.50;91.40
26821;DHT22;37186;51.394;5.454;2023-12-20T14:43:23;9.60;91.10
26821;DHT22;37186;51.394;5.454;2023-12-20T14:46:23;9.60;91.10
26821;DHT22;37186;51.394;5.454;2023-12-20T14:49:24;9.60;91.10
26821;DHT22;37186;51.394;5.454;2023-12-20T14:52:25;9.60;91.10
26821;DHT22;37186;51.394;5.454;2023-12-20T14:55:25;9.60;91.10
26821;DHT22;37186;51.394;5.454;2023-12-20T14:58:27;9.60;91.10
26821;DHT22;37186;51.394;5.454;2023-12-20T15:01:30;9.60;91.10
26821;DHT22;37186;51.394;5.454;2023-12-20T15:04:31;9.60;91.10
26821;DHT22;37186;51.394;5.454;2023-12-20T15:07:32;9.60;91.10
26821;DHT22;37186;51.394;5.454;2023-12-20T15:10:32;9.70;91.00
26821;DHT22;37186;51.394;5.454;2023-12-20T15:13:33;9.60;91.10
26821;DHT22;37186;51.394;5.454;2023-12-20T15:16:35;9.70;91.10
26821;DHT22;37186;51.394;5.454;2023-12-20T15:19:36;9.70;91.00
26821;DHT22;37186;51.394;5.454;2023-12-20T15:22:36;9.70;91.00
26821;DHT22;37186;51.394;5.454;2023-12-20T15:25:38;9.70;91.10
26821;DHT22;37186;51.394;5.454;2023-12-20T15:28:38;9.70;91.10
26821;DHT22;37186;51.394;5.454;2023-12-20T15:31:46;9.70;91.10
26821;DHT22;37186;51.394;5.454;2023-12-20T15:34:47;9.70;91.10
26821;DHT22;37186;51.394;5.454;2023-12-20T15:37:47;9.60;91.10
26821;DHT22;37186;51.394;5.454;2023-12-20T15:40:48;9.70;91.10
26821;DHT22;37186;51.394;5.454;2023-12-20T15:43:49;9.70;91.10
26821;DHT22;37186;51.394;5.454;2023-12-20T15:46:51;9.70;91.10
26821;DHT22;37186;51.394;5.454;2023-12-20T15:49:52;9.70;91.00
26821;DHT22;37186;51.394;5.454;2023-12-20T15:52:52;9.70;91.00
26821;DHT22;37186;51.394;5.454;2023-12-20T15:55:53;9.80;91.00
26821;DHT22;37186;51.394;5.454;2023-12-20T15:58:53;9.80;91.00
26821;DHT22;37186;51.394;5.454;2023-12-20T16:01:55;9.70;91.00
26821;DHT22;37186;51.394;5.454;2023-12-20T16:04:55;9.70;91.00
26821;DHT22;37186;51.394;5.454;2023-12-20T16:07:56;9.70;91.00
26821;DHT22;37186;51.394;5.454;2023-12-20T16:10:56;9.80;91.00
26821;DHT22;37186;51.394;5.454;2023-12-20T16:13:57;9.70;91.00
26821;DHT22;37186;51.394;5.454;2023-12-20T16:16:57;9.70;91.10
26821;DHT22;37186;51.394;5.454;2023-12-20T16:19:59;9.70;91.10
26821;DHT22;37186;51.394;5.454;2023-12-20T16:23:00;9.70;91.10
26821;DHT22;37186;51.394;5.454;2023-12-20T16:26:01;9.70;91.10
26821;DHT22;37186;51.394;5.454;2023-12-20T16:29:02;9.70;91.20
26821;DHT22;37186;51.394;5.454;2023-12-20T16:32:03;9.70;91.20
26821;DHT22;37186;51.394;5.454;2023-12-20T16:35:03;9.70;91.10
26821;DHT22;37186;51.394;5.454;2023-12-20T16:38:05;9.70;91.10
26821;DHT22;37186;51.394;5.454;2023-12-20T16:41:05;9.80;91.20
26821;DHT22;37186;51.394;5.454;2023-12-20T16:44:06;9.80;91.10
26821;DHT22;37186;51.394;5.454;2023-12-20T16:47:06;9.80;91.10
26821;DHT22;37186;51.394;5.454;2023-12-20T16:50:07;9.70;91.20
26821;DHT22;37186;51.394;5.454;2023-12-20T16:53:09;9.80;91.20
26821;DHT22;37186;51.394;5.454;2023-12-20T16:56:10;9.80;91.10
26821;DHT22;37186;51.394;5.454;2023-12-20T16:59:10;9.80;91.10
26821;DHT22;37186;51.394;5.454;2023-12-20T17:02:11;9.70;91.10
26821;DHT22;37186;51.394;5.454;2023-12-20T17:05:12;9.80;91.20
26821;DHT22;37186;51.394;5.454;2023-12-20T17:08:12;9.80;91.20
26821;DHT22;37186;51.394;5.454;2023-12-20T17:11:13;9.80;91.20
26821;DHT22;37186;51.394;5.454;2023-12-20T17:14:14;9.80;91.20
26821;DHT22;37186;51.394;5.454;2023-12-20T17:17:14;9.80;91.30
26821;DHT22;37186;51.394;5.454;2023-12-20T17:20:15;9.80;91.20
26821;DHT22;37186;51.394;5.454;2023-12-20T17:23:15;9.80;91.10
26821;DHT22;37186;51.394;5.454;2023-12-20T17:26:16;9.80;91.10
26821;DHT22;37186;51.394;5.454;2023-12-20T17:29:16;9.80;91.10
26821;DHT22;37186;51.394;5.454;2023-12-20T17:32:17;9.80;91.20
26821;DHT22;37186;51.394;5.454;2023-12-20T17:35:17;9.80;91.20
26821;DHT22;37186;51.394;5.454;2023-12-20T17:38:18;9.80;91.20
26821;DHT22;37186;51.394;5.454;2023-12-20T17:41:19;9.80;91.20
26821;DHT22;37186;51.394;5.454;2023-12-20T17:44:19;9.80;91.30
26821;DHT22;37186;51.394;5.454;2023-12-20T17:47:20;9.80;91.30
26821;DHT22;37186;51.394;5.454;2023-12-20T17:50:21;9.90;91.20
26821;DHT22;37186;51.394;5.454;2023-12-20T17:53:21;9.90;91.20
26821;DHT22;37186;51.394;5.454;2023-12-20T17:56:22;9.90;91.30
26821;DHT22;37186;51.394;5.454;2023-12-20T17:59:22;9.90;91.30
26821;DHT22;37186;51.394;5.454;2023-12-20T18:02:23;9.90;91.20
26821;DHT22;37186;51.394;5.454;2023-12-20T18:05:23;9.90;91.20
26821;DHT22;37186;51.394;5.454;2023-12-20T18:08:24;9.90;91.30
26821;DHT22;37186;51.394;5.454;2023-12-20T18:11:25;9.90;91.20
26821;DHT22;37186;51.394;5.454;2023-12-20T18:14:25;9.80;91.30
26821;DHT22;37186;51.394;5.454;2023-12-20T18:17:26;9.90;91.30
26821;DHT22;37186;51.394;5.454;2023-12-20T18:20:27;9.90;91.30
26821;DHT22;37186;51.394;5.454;2023-12-20T18:23:28;9.90;91.40
26821;DHT22;37186;51.394;5.454;2023-12-20T18:26:28;9.90;91.30
26821;DHT22;37186;51.394;5.454;2023-12-20T18:29:29;9.90;91.30
26821;DHT22;37186;51.394;5.454;2023-12-20T18:32:29;9.90;91.30
26821;DHT22;37186;51.394;5.454;2023-12-20T18:35:30;9.90;91.30
26821;DHT22;37186;51.394;5.454;2023-12-20T18:38:32;9.90;91.30
26821;DHT22;37186;51.394;5.454;2023-12-20T18:41:33;9.90;91.30
26821;DHT22;37186;51.394;5.454;2023-12-20T18:44:35;9.90;91.30
26821;DHT22;37186;51.394;5.454;2023-12-20T18:47:35;10.00;91.30
26821;DHT22;37186;51.394;5.454;2023-12-20T18:50:36;10.00;91.30
26821;DHT22;37186;51.394;5.454;2023-12-20T18:53:37;10.00;91.30
26821;DHT22;37186;51.394;5.454;2023-12-20T18:56:38;10.00;91.30
26821;DHT22;37186;51.394;5.454;2023-12-20T18:59:40;10.00;91.30
26821;DHT22;37186;51.394;5.454;2023-12-20T19:02:40;10.00;91.30
26821;DHT22;37186;51.394;5.454;2023-12-20T19:05:41;10.00;91.20
26821;DHT22;37186;51.394;5.454;2023-12-20T19:08:42;10.10;91.30
26821;DHT22;37186;51.394;5.454;2023-12-20T19:11:42;10.10;91.20
26821;DHT22;37186;51.394;5.454;2023-12-20T19:14:43;10.10;91.20
26821;DHT22;37186;51.394;5.454;2023-12-20T19:17:46;10.10;91.20
26821;DHT22;37186;51.394;5.454;2023-12-20T19:20:47;10.10;91.20
26821;DHT22;37186;51.394;5.454;2023-12-20T19:23:47;10.10;91.30